Time;durP1;ratioP1;P1;durP2;ratioP2;P2;SDS_P1;SDS_P2;PMS_P1;PMS_P2;Temp;Humidity;BMP_temperature;BMP_pressure;BME280_temperature;BME280_humidity;BME280_pressure;Samples;Min_cycle;Max_cycle;Signal;HPM_P1;HPM_P2
2022/10/14 00:00:20;;;;;;;30.52;22.63;;;;;;;13.62;98.65;101563.72;5054650;28;20037;-65
2022/10/14 00:02:45;;;;;;;30.67;23.55;;;;;;;13.61;98.74;101561.97;5027407;28;20407;-65
2022/10/14 00:05:10;;;;;;;33.85;24.63;;;;;;;13.62;99.20;101564.59;5021224;28;20025;-65
2022/10/14 00:07:36;;;;;;;31.80;23.10;;;;;;;13.63;99.23;101565.44;5040349;28;20426;-65
2022/10/14 00:10:03;;;;;;;32.47;24.10;;;;;;;13.63;99.10;101565.44;5059412;28;20510;-64
2022/10/14 00:12:29;;;;;;;36.55;24.75;;;;;;;13.64;99.26;101567.19;5043944;28;20100;-65
2022/10/14 00:14:55;;;;;;;32.95;23.77;;;;;;;13.64;99.17;101562.03;5056370;28;20139;-65
2022/10/14 00:17:21;;;;;;;34.95;24.50;;;;;;;13.62;99.35;101568.88;5049327;28;20090;-65
2022/10/14 00:19:46;;;;;;;35.10;23.90;;;;;;;13.62;99.69;101568.88;5045446;28;20040;-65
2022/10/14 00:22:12;;;;;;;31.45;22.95;;;;;;;13.66;99.43;101571.59;5038630;28;20048;-65
2022/10/14 00:24:38;;;;;;;31.92;23.48;;;;;;;13.65;99.43;101580.19;5063454;28;20043;-65
2022/10/14 00:27:03;;;;;;;33.45;23.23;;;;;;;13.63;99.58;101566.31;5051982;28;20025;-65
2022/10/14 00:29:28;;;;;;;36.33;25.50;;;;;;;13.66;99.43;101568.13;5043781;28;20060;-65
2022/10/14 00:31:54;;;;;;;35.15;23.27;;;;;;;13.67;99.48;101569.88;5055934;28;20455;-65
2022/10/14 00:34:19;;;;;;;38.53;23.65;;;;;;;13.68;99.44;101572.50;5051055;28;20067;-65
2022/10/14 00:36:45;;;;;;;33.60;23.00;;;;;;;13.69;99.60;101571.66;5027519;28;20096;-65
2022/10/14 00:39:11;;;;;;;36.60;24.48;;;;;;;13.68;99.38;101559.56;5050912;28;20035;-65
2022/10/14 00:41:37;;;;;;;34.22;23.90;;;;;;;13.66;99.81;101553.50;5059037;28;20103;-65
2022/10/14 00:44:26;;;;;;;30.80;23.42;;;;;;;13.71;99.87;101555.31;5025670;28;20041;-65
2022/10/14 00:46:53;;;;;;;31.15;23.00;;;;;;;13.69;99.90;101547.53;5042792;28;20044;-65
2022/10/14 00:49:29;;;;;;;32.10;23.75;;;;;;;13.71;99.94;101545.88;5056169;28;20081;-65
2022/10/14 00:52:04;;;;;;;34.20;23.00;;;;;;;13.69;100.00;101544.94;5042946;28;20480;-65
2022/10/14 00:54:36;;;;;;;32.42;23.90;;;;;;;13.71;100.00;101539.81;5032403;28;20057;-65
2022/10/14 00:57:02;;;;;;;34.35;23.67;;;;;;;13.68;100.00;101533.72;5043696;28;20448;-65
2022/10/14 00:59:28;;;;;;;31.40;23.40;;;;;;;13.68;100.00;101532.84;5027317;28;20025;-65
2022/10/14 01:01:53;;;;;;;35.85;24.35;;;;;;;13.68;100.00;101538.03;5059608;28;20445;-65
2022/10/14 01:04:19;;;;;;;33.42;23.83;;;;;;;13.69;100.00;101538.06;5049222;28;20060;-64
2022/10/14 01:07:10;;;;;;;30.75;23.88;;;;;;;13.72;100.00;101529.53;5051257;28;20079;-65
2022/10/14 01:09:43;;;;;;;33.38;24.00;;;;;;;13.70;100.00;101531.19;5047602;28;20045;-65
2022/10/14 01:12:24;;;;;;;29.88;22.23;;;;;;;13.70;100.00;101526.00;5060055;28;20495;-64
2022/10/14 01:15:06;;;;;;;32.33;23.50;;;;;;;13.72;100.00;101524.34;5047688;28;20030;-65
2022/10/14 01:17:56;;;;;;;29.25;22.90;;;;;;;13.71;100.00;101520.03;5057665;28;20387;-65
2022/10/14 01:20:30;;;;;;;31.42;22.30;;;;;;;13.71;100.00;101521.72;5055756;28;20030;-65
2022/10/14 01:23:36;;;;;;;29.33;21.33;;;;;;;13.77;100.00;101512.44;5049622;28;20028;-64
2022/10/14 01:26:20;;;;;;;29.27;22.58;;;;;;;13.72;100.00;101503.69;5047513;28;20655;-65
2022/10/14 01:28:51;;;;;;;31.23;20.98;;;;;;;13.69;100.00;101490.66;5045084;28;20022;-65
2022/10/14 01:31:20;;;;;;;27.60;21.67;;;;;;;13.68;100.00;101481.16;5045842;28;20100;-65
2022/10/14 01:33:50;;;;;;;;;;;;;;;13.83;99.27;101473.81;5038959;28;20507;-65
2022/10/14 01:36:19;;;;;;;32.33;21.77;;;;;;;13.72;100.00;101480.44;5042605;28;19975;-65
2022/10/14 01:38:48;;;;;;;;;;;;;;;13.82;99.27;101472.03;5044216;28;20109;-65
2022/10/14 01:41:19;;;;;;;31.77;22.27;;;;;;;13.71;100.00;101470.94;5037376;28;19970;-65
2022/10/14 01:43:47;;;;;;;31.42;21.92;;;;;;;13.68;100.00;101474.28;5037895;28;20669;-65
2022/10/14 01:46:14;;;;;;;29.63;22.90;;;;;;;13.68;100.00;101469.13;5037572;28;20037;-65
2022/10/14 01:48:45;;;;;;;28.75;22.92;;;;;;;13.66;100.00;101464.75;5032658;28;20484;-65
2022/10/14 01:51:16;;;;;;;28.85;21.95;;;;;;;13.65;100.00;101460.41;5037327;28;20029;-65
2022/10/14 01:53:48;;;;;;;29.02;21.95;;;;;;;13.61;100.00;101462.06;5034278;28;20026;-65
2022/10/14 01:56:16;;;;;;;25.90;20.83;;;;;;;13.61;100.00;101471.53;5036984;28;20033;-65
2022/10/14 01:58:42;;;;;;;32.10;21.70;;;;;;;13.61;100.00;101474.97;5040655;28;20025;-65
2022/10/14 02:01:08;;;;;;;33.22;21.88;;;;;;;13.61;100.00;101468.94;5043272;28;20025;-65
2022/10/14 02:03:42;;;;;;;30.98;22.98;;;;;;;13.63;100.00;101469.84;5056376;28;20029;-65
2022/10/14 02:06:15;;;;;;;30.33;21.45;;;;;;;13.62;100.00;101468.09;5053632;28;20032;-65
2022/10/14 02:08:53;;;;;;;27.55;21.08;;;;;;;13.65;100.00;101460.41;5049073;28;20361;-66
2022/10/14 02:11:21;;;;;;;31.55;22.38;;;;;;;13.61;100.00;101454.31;5042140;28;20387;-65
2022/10/14 02:14:27;;;;;;;30.67;22.38;;;;;;;13.68;100.00;101460.50;5051732;28;20032;-64
2022/10/14 02:17:16;;;;;;;31.95;21.25;;;;;;;13.65;100.00;101461.31;5050238;28;20548;-65
2022/10/14 02:19:49;;;;;;;29.35;22.20;;;;;;;13.62;100.00;101456.03;5053040;28;20029;-65
2022/10/14 02:22:26;;;;;;;32.75;21.20;;;;;;;13.67;100.00;101453.59;5049515;28;20024;-65
2022/10/14 02:24:54;;;;;;;28.52;21.52;;;;;;;13.64;100.00;101450.91;5048154;28;20063;-64
2022/10/14 02:27:24;;;;;;;28.10;19.95;;;;;;;13.65;100.00;101450.06;5055169;28;20040;-65
2022/10/14 02:29:50;;;;;;;;;;;;;;;13.80;99.71;101458.22;5046971;28;20029;-65
2022/10/14 02:32:19;;;;;;;28.83;20.50;;;;;;;13.65;100.00;101450.97;5049601;28;20374;-65
2022/10/14 02:34:49;;;;;;;32.30;22.30;;;;;;;13.65;100.00;101445.81;5045393;28;20044;-64
2022/10/14 02:37:16;;;;;;;32.45;21.30;;;;;;;13.62;100.00;101447.41;5050995;28;20029;-64
2022/10/14 02:39:54;;;;;;;29.13;21.58;;;;;;;13.65;100.00;101452.66;5039185;28;20047;-65
2022/10/14 02:42:20;;;;;;;30.27;21.27;;;;;;;13.63;100.00;101446.59;5048882;28;20025;-65
2022/10/14 02:44:57;;;;;;;30.10;21.23;;;;;;;13.66;100.00;101451.84;5048311;28;20063;-65
2022/10/14 02:47:23;;;;;;;33.47;21.58;;;;;;;13.64;100.00;101449.19;5047427;28;20644;-65
2022/10/14 02:49:49;;;;;;;30.05;20.58;;;;;;;13.64;100.00;101443.16;5048811;28;20033;-65
2022/10/14 02:52:14;;;;;;;30.98;20.58;;;;;;;13.64;100.00;101438.84;5039498;28;20558;-65
2022/10/14 02:54:40;;;;;;;30.90;21.95;;;;;;;13.62;100.00;101437.09;5035029;28;20497;-65
2022/10/14 02:57:05;;;;;;;27.33;20.77;;;;;;;13.65;100.00;101434.56;5059586;28;20039;-66
2022/10/14 02:59:31;;;;;;;34.42;20.30;;;;;;;13.66;100.00;101431.16;5050848;28;20030;-65
2022/10/14 03:01:56;;;;;;;27.73;20.52;;;;;;;13.64;100.00;101425.94;5047544;28;20036;-65
2022/10/14 03:04:21;;;;;;;32.55;21.35;;;;;;;13.64;100.00;101427.66;5051518;28;20036;-65
2022/10/14 03:06:47;;;;;;;31.10;20.95;;;;;;;13.63;100.00;101426.78;5047719;28;20546;-65
2022/10/14 03:09:12;;;;;;;26.25;19.35;;;;;;;13.63;100.00;101423.31;5048699;28;20049;-65
2022/10/14 03:11:37;;;;;;;28.60;21.45;;;;;;;13.61;100.00;101420.72;5044015;28;20095;-65
2022/10/14 03:14:03;;;;;;;29.50;20.30;;;;;;;13.63;100.00;101423.31;5042429;28;20045;-64
2022/10/14 03:16:28;;;;;;;29.85;20.25;;;;;;;13.63;100.00;101419.03;5043501;28;20116;-65
2022/10/14 03:18:53;;;;;;;28.55;19.65;;;;;;;13.64;100.00;101415.59;5045874;28;20517;-65
2022/10/14 03:21:19;;;;;;;25.92;19.33;;;;;;;13.63;100.00;101405.25;5057561;28;20029;-65
2022/10/14 03:23:44;;;;;;;26.67;19.30;;;;;;;13.64;100.00;101401.81;5056001;28;20119;-65
2022/10/14 03:26:09;;;;;;;27.58;19.23;;;;;;;13.65;100.00;101400.97;5027276;28;20032;-65
2022/10/14 03:28:35;;;;;;;27.15;19.23;;;;;;;13.65;100.00;101404.47;5055227;28;20033;-65
2022/10/14 03:31:00;;;;;;;28.17;20.02;;;;;;;13.66;100.00;101407.91;5050943;28;20645;-65
2022/10/14 03:33:25;;;;;;;27.45;19.38;;;;;;;13.65;100.00;101399.28;5059472;28;20029;-65
2022/10/14 03:35:51;;;;;;;28.42;20.17;;;;;;;13.64;100.00;101396.66;5058016;28;20087;-65
2022/10/14 03:38:16;;;;;;;26.40;18.65;;;;;;;13.61;100.00;101391.41;5027768;28;20204;-65
2022/10/14 03:40:42;;;;;;;29.55;19.10;;;;;;;13.65;100.00;101391.53;5039053;28;20076;-65
2022/10/14 03:43:07;;;;;;;29.52;19.20;;;;;;;13.63;100.00;101400.06;5030771;28;20506;-65
2022/10/14 03:45:32;;;;;;;30.98;19.40;;;;;;;13.61;100.00;101388.84;5046912;28;20072;-65
2022/10/14 03:47:58;;;;;;;27.70;18.58;;;;;;;13.64;100.00;101389.75;5021351;28;20124;-65
2022/10/14 03:50:23;;;;;;;26.42;18.40;;;;;;;13.64;100.00;101381.13;5041813;28;20025;-65
2022/10/14 03:52:48;;;;;;;29.60;18.20;;;;;;;13.64;100.00;101382.00;5035472;28;20048;-65
2022/10/14 03:55:14;;;;;;;26.33;18.45;;;;;;;13.64;100.00;101382.00;5041386;28;20108;-65
2022/10/14 03:57:39;;;;;;;27.85;17.95;;;;;;;13.63;100.00;101377.69;5042684;28;20056;-65
2022/10/14 04:00:06;;;;;;;26.15;18.15;;;;;;;13.62;100.00;101372.47;5041955;28;20029;-65
2022/10/14 04:02:31;;;;;;;27.73;18.98;;;;;;;13.62;100.00;101373.34;5021084;28;20132;-65
2022/10/14 04:04:56;;;;;;;30.40;19.27;;;;;;;13.60;100.00;101376.75;5034465;28;20044;-65
2022/10/14 04:07:22;;;;;;;25.95;18.00;;;;;;;13.63;100.00;101369.94;5040163;28;20767;-65
2022/10/14 04:09:47;;;;;;;28.90;18.88;;;;;;;13.62;100.00;101364.72;5043005;28;20053;-65
2022/10/14 04:12:12;;;;;;;28.70;18.45;;;;;;;13.62;100.00;101365.59;5038760;28;20029;-65
2022/10/14 04:14:38;;;;;;;27.20;17.92;;;;;;;13.64;100.00;101363.91;5041367;28;20025;-65
2022/10/14 04:17:03;;;;;;;30.02;18.23;;;;;;;13.67;100.00;101368.31;5038936;28;20424;-65
2022/10/14 04:19:29;;;;;;;31.10;18.60;;;;;;;13.65;100.00;101359.63;5020554;28;20041;-65
2022/10/14 04:21:55;;;;;;;27.50;18.80;;;;;;;13.65;100.00;101364.78;5039055;28;20025;-65
2022/10/14 04:24:20;;;;;;;26.75;17.58;;;;;;;13.66;100.00;101353.66;5035603;28;20057;-66
2022/10/14 04:26:49;;;;;;;26.10;17.88;;;;;;;13.66;100.00;101358.81;5047094;28;20044;-65
2022/10/14 04:29:14;;;;;;;25.95;17.88;;;;;;;13.68;100.00;101357.13;5038055;28;20045;-65
2022/10/14 04:31:39;;;;;;;24.40;17.08;;;;;;;13.64;100.00;101347.53;5017181;28;20479;-65
2022/10/14 04:34:05;;;;;;;26.27;17.55;;;;;;;13.68;100.00;101355.41;5036174;28;20112;-65
2022/10/14 04:36:30;;;;;;;26.30;17.77;;;;;;;13.67;100.00;101352.81;5043557;28;20087;-65
2022/10/14 04:38:56;;;;;;;23.98;16.70;;;;;;;13.66;100.00;101348.47;5034333;28;20040;-65
2022/10/14 04:41:21;;;;;;;25.17;17.48;;;;;;;13.66;100.00;101339.00;5060504;28;20036;-65
2022/10/14 04:43:46;;;;;;;23.48;17.30;;;;;;;13.66;100.00;101344.19;5049087;28;20022;-65
2022/10/14 04:46:12;;;;;;;21.83;16.08;;;;;;;13.65;100.00;101339.84;5060339;28;20107;-65
2022/10/14 04:48:37;;;;;;;25.00;17.00;;;;;;;13.62;100.00;101341.47;5041293;28;20036;-65
2022/10/14 04:51:03;;;;;;;21.08;15.43;;;;;;;13.65;100.00;101339.84;5054257;28;20265;-64
2022/10/14 04:53:28;;;;;;;21.00;16.20;;;;;;;13.66;100.00;101332.97;5054533;28;20116;-65
2022/10/14 04:55:53;;;;;;;21.92;15.55;;;;;;;13.64;100.00;101326.88;5050255;28;20084;-65
2022/10/14 04:58:19;;;;;;;20.27;16.02;;;;;;;13.66;100.00;101326.09;5040945;28;20060;-65
2022/10/14 05:00:44;;;;;;;19.20;14.95;;;;;;;13.70;100.00;101332.19;5048425;28;20388;-65
2022/10/14 05:03:10;;;;;;;21.80;14.45;;;;;;;13.67;100.00;101324.38;5045872;28;20029;-65
2022/10/14 05:05:35;;;;;;;18.60;15.10;;;;;;;13.66;100.00;101322.63;5039463;28;20496;-65
2022/10/14 05:08:01;;;;;;;19.45;14.70;;;;;;;13.66;100.00;101320.03;5027074;28;20961;-65
2022/10/14 05:10:26;;;;;;;16.30;14.05;;;;;;;13.65;100.00;101314.00;5057165;28;20106;-65
2022/10/14 05:12:52;;;;;;;18.90;13.88;;;;;;;13.69;100.00;101312.34;5061098;28;20036;-65
2022/10/14 05:15:18;;;;;;;18.58;13.98;;;;;;;13.66;100.00;101308.00;5064495;28;20028;-65
2022/10/14 05:17:43;;;;;;;16.55;14.10;;;;;;;13.66;100.00;101309.72;5059598;28;20542;-65
2022/10/14 05:20:10;;;;;;;17.27;13.38;;;;;;;13.65;100.00;101305.34;5052439;28;20146;-65
2022/10/14 05:22:36;;;;;;;16.88;12.93;;;;;;;13.66;100.00;101304.53;5048401;28;20037;-65
2022/10/14 05:25:02;;;;;;;14.55;12.35;;;;;;;13.68;100.00;101308.91;5025784;28;20033;-65
2022/10/14 05:27:28;;;;;;;18.80;13.05;;;;;;;13.69;100.00;101304.59;5027703;28;20087;-65
2022/10/14 05:29:53;;;;;;;16.95;13.82;;;;;;;13.63;100.00;101295.00;5024695;28;20111;-65
2022/10/14 05:32:19;;;;;;;16.27;12.88;;;;;;;13.66;100.00;101286.44;5026204;28;20546;-65
2022/10/14 05:34:44;;;;;;;16.35;12.15;;;;;;;13.67;100.00;101283.03;5054778;28;20111;-65
2022/10/14 05:37:09;;;;;;;14.02;11.50;;;;;;;13.66;100.00;101273.53;5039378;28;20077;-65
2022/10/14 05:39:35;;;;;;;16.42;12.80;;;;;;;13.70;100.00;101285.66;5045353;28;20096;-65
2022/10/14 05:42:00;;;;;;;13.55;11.98;;;;;;;13.71;100.00;101286.53;5038214;28;20159;-65
2022/10/14 05:44:25;;;;;;;19.08;11.88;;;;;;;13.69;100.00;101271.88;5038979;28;20078;-65
2022/10/14 05:46:51;;;;;;;14.57;12.00;;;;;;;13.70;100.00;101272.75;5019051;28;20037;-65
2022/10/14 05:49:16;;;;;;;16.60;12.05;;;;;;;13.66;100.00;101265.78;5042928;28;20044;-65
2022/10/14 05:51:42;;;;;;;13.55;11.88;;;;;;;13.70;100.00;101264.97;5043878;28;20037;-65
2022/10/14 05:54:07;;;;;;;13.60;11.23;;;;;;;13.69;100.00;101258.94;5041791;28;20503;-64
2022/10/14 05:56:32;;;;;;;17.02;12.13;;;;;;;13.68;100.00;101267.53;5042117;28;20033;-65
2022/10/14 05:58:58;;;;;;;15.18;11.18;;;;;;;13.72;100.00;101265.91;5002635;28;20033;-65
2022/10/14 06:01:23;;;;;;;12.27;10.50;;;;;;;13.71;100.00;101266.75;5040803;28;20033;-65
2022/10/14 06:03:50;;;;;;;13.70;10.35;;;;;;;13.74;100.00;101263.34;5045176;28;20092;-65
2022/10/14 06:06:15;;;;;;;13.20;10.85;;;;;;;13.73;100.00;101262.47;5038319;28;20546;-65
2022/10/14 06:08:41;;;;;;;11.68;10.40;;;;;;;13.73;100.00;101267.66;5020829;28;20033;-65
2022/10/14 06:11:07;;;;;;;13.57;11.05;;;;;;;13.72;100.00;101263.31;5039073;28;20060;-66
2022/10/14 06:13:36;;;;;;;12.32;10.13;;;;;;;13.73;100.00;101259.91;5017090;28;20036;-65
2022/10/14 06:16:11;;;;;;;12.63;10.38;;;;;;;13.74;100.00;101248.72;5037325;28;20498;-65
2022/10/14 06:18:37;;;;;;;11.80;10.38;;;;;;;13.73;100.00;101246.09;5042790;28;20506;-65
2022/10/14 06:21:03;;;;;;;14.13;9.50;;;;;;;13.77;100.00;101253.97;5037935;28;20025;-65
2022/10/14 06:23:29;;;;;;;13.02;10.40;;;;;;;13.75;100.00;101250.47;5039160;28;20061;-65
2022/10/14 06:25:54;;;;;;;11.50;9.73;;;;;;;13.77;100.00;101253.97;5040883;28;20056;-64
2022/10/14 06:28:20;;;;;;;14.73;9.63;;;;;;;13.80;100.00;101247.97;5038084;28;20521;-64
2022/10/14 06:30:50;;;;;;;12.45;9.73;;;;;;;13.81;100.00;101248.00;5038388;28;20025;-66
2022/10/14 06:33:15;;;;;;;10.55;9.43;;;;;;;13.79;100.00;101241.94;5041747;28;20126;-65
2022/10/14 06:35:41;;;;;;;10.77;9.68;;;;;;;13.82;100.00;101251.44;5039738;28;20124;-65
2022/10/14 06:38:06;;;;;;;13.07;9.70;;;;;;;13.82;100.00;101246.28;5021990;28;20040;-65
2022/10/14 06:40:31;;;;;;;11.57;9.35;;;;;;;13.81;100.00;101236.78;5021384;28;20032;-65
2022/10/14 06:42:58;;;;;;;13.00;8.98;;;;;;;13.83;100.00;101246.34;5039589;28;20072;-65
2022/10/14 06:45:23;;;;;;;12.73;9.20;;;;;;;13.85;100.00;101241.19;5046010;28;20029;-65
2022/10/14 06:47:48;;;;;;;11.48;8.95;;;;;;;13.83;100.00;101240.28;5036702;28;20040;-65
2022/10/14 06:50:14;;;;;;;11.48;9.35;;;;;;;13.83;100.00;101240.28;5037120;28;20064;-65
2022/10/14 06:52:39;;;;;;;11.57;8.85;;;;;;;13.83;100.00;101243.75;5041893;28;20148;-65
2022/10/14 06:55:05;;;;;;;12.80;8.60;;;;;;;13.83;100.00;101228.25;5043361;28;20030;-65
2022/10/14 06:57:31;;;;;;;11.52;9.07;;;;;;;13.87;100.00;101239.50;5041830;28;20503;-65
2022/10/14 06:59:56;;;;;;;11.68;8.77;;;;;;;13.85;100.00;101236.03;5041721;28;20120;-65
2022/10/14 07:02:21;;;;;;;9.82;8.18;;;;;;;13.88;100.00;101226.59;5039859;28;20387;-65
2022/10/14 07:04:47;;;;;;;10.80;8.90;;;;;;;13.88;100.00;101225.72;5045645;28;20049;-65
2022/10/14 07:07:12;;;;;;;11.73;9.35;;;;;;;13.88;100.00;101216.25;5039732;28;20143;-65
2022/10/14 07:09:37;;;;;;;14.45;10.27;;;;;;;13.92;100.00;101224.97;5044941;28;20085;-65
2022/10/14 07:12:03;;;;;;;11.70;9.82;;;;;;;13.90;100.00;101217.19;5019985;28;20075;-65
2022/10/14 07:14:28;;;;;;;11.45;9.48;;;;;;;13.89;100.00;101223.19;5041562;28;20041;-65
2022/10/14 07:16:54;;;;;;;13.02;10.85;;;;;;;13.92;100.00;101217.22;5044505;28;20475;-65
2022/10/14 07:19:19;;;;;;;11.18;9.98;;;;;;;13.90;100.00;101224.94;5043271;28;20028;-65
2022/10/14 07:21:45;;;;;;;11.07;9.40;;;;;;;13.91;100.00;101230.97;5007162;28;20148;-64
2022/10/14 07:24:11;;;;;;;12.15;10.00;;;;;;;13.92;100.00;101238.75;5039517;28;20037;-64
2022/10/14 07:26:36;;;;;;;14.20;9.18;;;;;;;13.92;100.00;101231.00;5040078;28;20028;-64
2022/10/14 07:29:03;;;;;;;11.00;9.23;;;;;;;13.92;100.00;101227.53;5038276;28;20033;-64
2022/10/14 07:31:29;;;;;;;10.27;9.07;;;;;;;13.94;100.00;101238.78;5042386;28;20807;-64
2022/10/14 07:33:54;;;;;;;13.75;9.25;;;;;;;13.93;100.00;101237.03;5044829;28;20076;-65
2022/10/14 07:36:19;;;;;;;9.70;8.52;;;;;;;13.97;100.00;101240.56;5045863;28;20025;-65
2022/10/14 07:38:45;;;;;;;10.00;8.55;;;;;;;13.97;100.00;101241.44;5047059;28;20094;-64
2022/10/14 07:41:17;;;;;;;9.65;8.32;;;;;;;13.97;100.00;101230.22;5041203;28;20424;-65
2022/10/14 07:43:54;;;;;;;11.07;8.85;;;;;;;13.98;100.00;101232.84;5043916;28;20041;-65
2022/10/14 07:46:28;;;;;;;10.77;8.77;;;;;;;13.97;100.00;101232.81;5034863;28;20029;-65
2022/10/14 07:48:59;;;;;;;10.52;8.55;;;;;;;13.99;100.00;101229.41;5036053;28;20028;-64
2022/10/14 07:51:26;;;;;;;10.98;8.32;;;;;;;14.00;100.00;101227.69;5040763;28;20024;-64
2022/10/14 07:53:52;;;;;;;12.25;8.30;;;;;;;13.98;100.00;101219.03;5034557;28;20029;-65
2022/10/14 07:56:19;;;;;;;8.93;7.97;;;;;;;14.03;100.00;101228.63;5043439;28;20027;-65
2022/10/14 07:58:45;;;;;;;11.32;8.50;;;;;;;14.05;100.00;101228.66;5043605;28;20165;-65
2022/10/14 08:01:13;;;;;;;11.63;8.18;;;;;;;14.05;100.00;101223.50;5042016;28;20040;-65
2022/10/14 08:03:38;;;;;;;9.38;8.35;;;;;;;14.06;100.00;101220.94;5020688;28;20036;-65
2022/10/14 08:06:04;;;;;;;11.75;7.60;;;;;;;14.07;100.00;101216.63;5021922;28;20033;-65
2022/10/14 08:08:30;;;;;;;11.45;8.52;;;;;;;14.07;100.00;101214.03;5016080;28;20353;-65
2022/10/14 08:11:24;;;;;;;9.20;7.53;;;;;;;14.14;100.00;101218.50;5041402;28;20072;-65
2022/10/14 08:13:50;;;;;;;9.48;7.82;;;;;;;14.10;100.00;101211.53;5018409;28;20487;-65
2022/10/14 08:16:30;;;;;;;8.68;7.75;;;;;;;14.15;100.00;101220.25;5033837;28;20025;-65
2022/10/14 08:18:59;;;;;;;8.52;7.60;;;;;;;14.14;100.00;101215.94;5038231;28;20120;-65
2022/10/14 08:21:26;;;;;;;10.57;7.22;;;;;;;14.16;100.00;101216.81;5038618;28;20558;-65
2022/10/14 08:23:53;;;;;;;8.52;7.53;;;;;;;14.17;100.00;101208.22;5038801;28;20060;-65
2022/10/14 08:26:27;;;;;;;11.10;7.63;;;;;;;14.19;100.00;101211.69;5036234;28;20136;-65
2022/10/14 08:28:53;;;;;;;10.38;7.35;;;;;;;14.22;100.00;101201.41;5034981;28;20023;-65
2022/10/14 08:31:19;;;;;;;9.38;7.10;;;;;;;14.22;100.00;101194.53;5035812;28;20033;-65
2022/10/14 08:33:45;;;;;;;8.90;7.32;;;;;;;14.28;100.00;101205.81;5015972;28;20438;-65
2022/10/14 08:36:11;;;;;;;10.55;8.13;;;;;;;14.29;100.00;101202.38;5035996;28;20119;-65
2022/10/14 08:38:36;;;;;;;8.65;7.75;;;;;;;14.32;100.00;101208.50;5015181;28;20045;-65
2022/10/14 08:41:11;;;;;;;9.13;7.70;;;;;;;14.37;100.00;101205.97;5039605;28;20667;-66
2022/10/14 08:43:38;;;;;;;9.82;7.72;;;;;;;14.37;100.00;101209.44;5034930;28;20033;-65
2022/10/14 08:46:22;;;;;;;10.63;7.40;;;;;;;14.41;100.00;101207.78;5034002;28;20036;-66
2022/10/14 08:48:50;;;;;;;9.95;7.47;;;;;;;14.39;100.00;101205.19;5023707;28;20036;-66
2022/10/14 08:51:18;;;;;;;10.13;8.18;;;;;;;14.42;100.00;101205.22;5034750;28;20494;-66
2022/10/14 08:53:48;;;;;;;8.63;7.07;;;;;;;14.41;100.00;101197.44;5040331;28;20383;-66
2022/10/14 08:56:16;;;;;;;8.20;6.68;;;;;;;14.44;100.00;101203.56;5041931;28;20112;-67
2022/10/14 08:58:48;;;;;;;10.55;7.68;;;;;;;14.45;100.00;101202.69;5040956;28;20064;-68
2022/10/14 09:01:30;;;;;;;10.27;7.18;;;;;;;14.45;100.00;101204.41;5042806;28;20488;-69
2022/10/14 09:04:01;;;;;;;9.15;7.70;;;;;;;14.48;100.00;101212.25;5037856;28;20033;-68
2022/10/14 09:06:29;;;;;;;10.35;7.68;;;;;;;14.47;100.00;101206.22;5038275;28;20384;-69
2022/10/14 09:09:37;;;;;;;9.88;7.53;;;;;;;14.50;100.00;101205.41;5044043;28;20025;-69
2022/10/14 09:12:08;;;;;;;10.55;7.82;;;;;;;14.48;100.00;101196.72;5040646;28;20506;-68
2022/10/14 09:14:43;;;;;;;12.75;7.60;;;;;;;14.51;100.00;101193.34;5042447;28;20235;-68
2022/10/14 09:17:33;;;;;;;9.27;7.47;;;;;;;14.53;100.00;101195.09;5043861;28;20107;-68
2022/10/14 09:20:04;;;;;;;9.30;8.13;;;;;;;14.53;100.00;101192.50;5036467;28;20033;-68
2022/10/14 09:22:29;;;;;;;8.43;7.53;;;;;;;14.53;100.00;101191.63;5038937;28;20057;-68
2022/10/14 09:24:56;;;;;;;9.93;7.97;;;;;;;14.52;100.00;101195.06;5043208;28;20063;-68
2022/10/14 09:27:22;;;;;;;9.52;7.78;;;;;;;14.53;100.00;101182.16;5042115;28;20032;-68
2022/10/14 09:30:00;;;;;;;11.75;8.38;;;;;;;14.57;100.00;101177.91;5042045;28;20075;-68
2022/10/14 09:32:30;;;;;;;9.48;8.45;;;;;;;14.54;100.00;101168.38;5048977;28;20419;-68
2022/10/14 09:34:56;;;;;;;9.18;8.20;;;;;;;14.59;100.00;101176.22;5023174;28;20040;-68
2022/10/14 09:37:35;;;;;;;13.98;8.50;;;;;;;14.61;100.00;101187.47;5044453;28;20121;-68
2022/10/14 09:40:06;;;;;;;9.52;8.30;;;;;;;14.63;100.00;101181.47;5024395;28;20025;-66
2022/10/14 09:42:34;;;;;;;10.10;7.80;;;;;;;14.64;100.00;101179.75;5037875;28;20170;-66
2022/10/14 09:45:09;;;;;;;11.77;8.10;;;;;;;14.67;100.00;101167.72;5046426;28;20750;-68
2022/10/14 09:47:58;;;;;;;9.02;7.93;;;;;;;14.68;100.00;101161.72;5053325;28;20103;-69
2022/10/14 09:50:30;;;;;;;9.00;7.60;;;;;;;14.69;100.00;101166.03;5044999;28;20103;-69
2022/10/14 09:53:02;;;;;;;10.85;8.50;;;;;;;14.71;100.00;101166.06;5046782;28;20045;-69
2022/10/14 09:55:29;;;;;;;9.88;8.05;;;;;;;14.71;100.00;101168.66;5038929;28;20022;-68
2022/10/14 09:58:03;;;;;;;10.07;8.45;;;;;;;14.73;100.00;101161.78;5057358;28;20050;-69
2022/10/14 10:00:31;;;;;;;9.20;8.25;;;;;;;14.75;100.00;101165.28;5043264;28;20024;-69
2022/10/14 10:02:56;;;;;;;8.82;7.93;;;;;;;14.74;100.00;101151.47;5058751;28;20100;-69
2022/10/14 10:05:22;;;;;;;11.02;8.43;;;;;;;14.79;100.00;101158.41;5055686;28;20108;-68
2022/10/14 10:08:00;;;;;;;13.23;7.93;;;;;;;14.81;100.00;101162.78;5053361;28;20025;-69
2022/10/14 10:10:29;;;;;;;10.60;8.05;;;;;;;14.81;100.00;101159.31;5043712;28;20489;-69
2022/10/14 10:12:55;;;;;;;12.15;7.57;;;;;;;14.81;100.00;101157.59;5041209;28;20576;-69
2022/10/14 10:15:21;;;;;;;9.10;8.02;;;;;;;14.81;100.00;101152.44;5042760;28;20479;-69
2022/10/14 10:17:47;;;;;;;8.63;7.32;;;;;;;14.84;100.00;101155.03;5027724;28;20021;-69
2022/10/14 10:20:33;;;;;;;8.93;7.68;;;;;;;14.84;100.00;101147.28;5048221;28;20034;-69
2022/10/14 10:23:25;;;;;;;8.93;7.57;;;;;;;14.88;100.00;101148.22;5051347;28;20032;-69
2022/10/14 10:25:50;;;;;;;8.68;7.32;;;;;;;14.85;100.00;101149.00;5035226;28;20041;-69
2022/10/14 10:28:25;;;;;;;9.93;7.70;;;;;;;14.88;100.00;101145.63;5031311;28;20032;-68
2022/10/14 10:31:03;;;;;;;9.48;7.65;;;;;;;14.89;100.00;101148.22;5049550;28;20021;-69
2022/10/14 10:33:45;;;;;;;10.40;8.00;;;;;;;14.91;100.00;101143.94;5053589;28;20039;-69
2022/10/14 10:36:33;;;;;;;8.10;7.30;;;;;;;14.91;100.00;101143.06;5042766;28;20029;-69
2022/10/14 10:39:36;;;;;;;8.17;7.37;;;;;;;14.93;100.00;101129.31;5043103;28;20037;-69
2022/10/14 10:42:05;;;;;;;9.20;7.65;;;;;;;14.90;100.00;101136.16;5052240;28;20768;-69
2022/10/14 10:44:33;;;;;;;8.38;7.45;;;;;;;14.87;100.00;101131.81;5042862;28;20024;-70
2022/10/14 10:47:20;;;;;;;8.70;7.80;;;;;;;14.90;100.00;101125.78;5048588;28;20039;-70
2022/10/14 10:50:37;;;;;;;9.82;8.10;;;;;;;14.95;100.00;101132.78;5051780;28;20032;-70
2022/10/14 10:53:21;;;;;;;8.70;7.80;;;;;;;14.93;100.00;101134.47;5034845;28;20425;-70
2022/10/14 10:56:10;;;;;;;8.57;7.78;;;;;;;14.94;100.00;101127.59;5062895;28;20020;-70
2022/10/14 10:58:46;;;;;;;9.30;8.32;;;;;;;14.93;100.00;101121.53;5056721;28;20024;-70
2022/10/14 11:01:40;;;;;;;10.43;8.48;;;;;;;14.98;100.00;101119.84;5023436;28;20111;-70
2022/10/14 11:04:34;;;;;;;9.10;8.15;;;;;;;14.97;100.00;101118.13;5039827;28;20040;-70
2022/10/14 11:13:01;;;;;;;8.75;7.85;;;;;;;15.00;100.00;101107.81;5048477;28;20051;-70
2022/10/14 11:15:30;;;;;;;11.55;9.45;;;;;;;15.00;100.00;101109.53;5054917;28;20078;-70
2022/10/14 11:18:05;;;;;;;9.90;8.07;;;;;;;14.99;100.00;101105.22;5060496;28;20091;-69
2022/10/14 11:20:52;;;;;;;10.18;7.95;;;;;;;15.01;100.00;101096.63;5059600;28;20104;-70
2022/10/14 11:23:39;;;;;;;9.07;8.18;;;;;;;15.02;100.00;101105.25;5052789;28;20048;-70